Time;durP1;ratioP1;P1;durP2;ratioP2;P2;SDS_P1;SDS_P2;PMS_P1;PMS_P2;Temp;Humidity;BMP_temperature;BMP_pressure;BME280_temperature;BME280_humidity;BME280_pressure;Samples;Min_cycle;Max_cycle;Signal;HPM_P1;HPM_P2
2021/07/15 00:00:51;;;;;;;6.97;1.88;;;16.60;99.90;;;;;;5013323;28;20044;-73
2021/07/15 00:03:55;;;;;;;4.78;1.83;;;16.70;99.90;;;;;;5015220;28;20397;-72
2021/07/15 00:06:59;;;;;;;3.38;1.60;;;16.80;99.90;;;;;;5014913;28;20053;-71
2021/07/15 00:10:27;;;;;;;3.40;1.38;;;16.80;99.90;;;;;;5014254;28;20062;-74
2021/07/15 00:13:32;;;;;;;2.50;1.00;;;16.90;99.90;;;;;;5014921;28;20045;-74
2021/07/15 00:16:36;;;;;;;4.80;1.00;;;17.00;99.90;;;;;;5014216;28;20059;-73
2021/07/15 00:19:40;;;;;;;2.67;1.20;;;17.10;99.90;;;;;;5022350;28;20033;-74
2021/07/15 00:22:45;;;;;;;5.00;0.85;;;17.30;99.90;;;;;;5034737;28;20029;-71
2021/07/15 00:25:50;;;;;;;4.07;1.58;;;17.30;99.90;;;;;;5034121;28;20037;-73
2021/07/15 00:28:58;;;;;;;5.25;1.55;;;17.30;99.90;;;;;;5033993;28;20033;-74
2021/07/15 00:32:02;;;;;;;3.15;1.17;;;17.20;99.90;;;;;;5033942;28;20034;-73
2021/07/15 00:35:08;;;;;;;4.68;1.52;;;17.20;99.90;;;;;;5034473;28;20058;-72
2021/07/15 00:38:12;;;;;;;5.65;1.77;;;17.10;99.90;;;;;;5021970;28;20402;-73
2021/07/15 00:41:16;;;;;;;4.40;1.50;;;17.00;99.90;;;;;;5033207;28;20041;-73
2021/07/15 00:44:20;;;;;;;5.85;1.80;;;16.90;99.90;;;;;;5033495;28;20048;-72
2021/07/15 00:47:33;;;;;;;5.80;2.00;;;16.80;99.90;;;;;;5035199;28;20391;-72
2021/07/15 00:50:38;;;;;;;4.30;2.03;;;16.80;99.90;;;;;;5032892;28;20037;-72
2021/07/15 00:53:43;;;;;;;3.70;1.92;;;16.50;99.90;;;;;;5034538;28;20061;-71
2021/07/15 00:56:47;;;;;;;4.97;2.05;;;16.30;99.90;;;;;;5033808;28;20049;-71
2021/07/15 00:59:57;;;;;;;6.30;2.50;;;15.90;99.90;;;;;;5035997;28;20049;-71
2021/07/15 01:03:01;;;;;;;8.77;2.10;;;15.60;99.90;;;;;;5034956;28;20048;-72
2021/07/15 01:06:04;;;;;;;6.82;2.55;;;15.40;99.90;;;;;;5034224;28;20054;-72
2021/07/15 01:09:09;;;;;;;6.57;1.98;;;15.30;99.90;;;;;;5033337;28;20037;-71
2021/07/15 01:12:56;;;;;;;6.38;2.80;;;15.20;99.90;;;;;;5034822;28;20041;-72
2021/07/15 01:16:03;;;;;;;5.45;2.17;;;15.20;99.90;;;;;;5035284;28;20046;-72
2021/07/15 01:19:07;;;;;;;6.43;2.42;;;15.10;99.90;;;;;;5013905;28;20045;-72
2021/07/15 01:22:34;;;;;;;4.97;2.20;;;15.20;99.90;;;;;;5014363;28;20858;-71
2021/07/15 01:26:10;;;;;;;7.80;2.45;;;15.10;99.90;;;;;;5014994;28;20056;-71
2021/07/15 01:29:22;;;;;;;9.23;2.42;;;15.10;99.90;;;;;;5015503;28;20045;-72
2021/07/15 01:32:34;;;;;;;12.27;3.47;;;15.20;99.90;;;;;;5014452;28;20405;-71
2021/07/15 01:36:07;;;;;;;7.75;2.40;;;15.30;99.90;;;;;;5015656;28;20049;-72
2021/07/15 01:39:20;;;;;;;7.68;2.28;;;15.30;99.90;;;;;;5014866;28;20038;-71
2021/07/15 01:42:25;;;;;;;11.32;2.58;;;15.30;99.90;;;;;;5012599;28;20038;-73
2021/07/15 01:45:31;;;;;;;9.18;2.40;;;15.40;99.90;;;;;;5015500;28;20045;-72
2021/07/15 01:48:37;;;;;;;6.05;1.98;;;15.40;99.90;;;;;;5014886;28;20045;-72
2021/07/15 01:51:42;;;;;;;6.63;2.88;;;15.50;99.90;;;;;;5013072;28;20043;-72
2021/07/15 01:54:50;;;;;;;6.15;2.20;;;15.50;99.90;;;;;;5014871;28;20060;-71
2021/07/15 01:57:58;;;;;;;4.20;2.10;;;15.50;99.90;;;;;;5015688;28;20053;-71
2021/07/15 02:01:08;;;;;;;7.10;2.58;;;15.40;99.90;;;;;;5013306;28;20487;-73
2021/07/15 02:04:14;;;;;;;5.03;2.13;;;15.40;99.90;;;;;;5015882;28;20377;-71
2021/07/15 02:07:19;;;;;;;15.45;3.30;;;15.40;99.90;;;;;;5015750;28;20045;-72
2021/07/15 02:10:25;;;;;;;11.63;2.25;;;15.40;99.90;;;;;;5012328;28;20044;-72
2021/07/15 02:13:30;;;;;;;13.88;2.80;;;15.40;99.90;;;;;;5013434;28;20045;-71
2021/07/15 02:16:39;;;;;;;10.15;3.00;;;15.40;99.90;;;;;;5014199;28;20037;-72
2021/07/15 02:19:44;;;;;;;9.73;2.58;;;15.30;99.90;;;;;;5012866;28;20040;-71
2021/07/15 02:22:51;;;;;;;11.93;2.50;;;15.20;99.90;;;;;;5011809;28;20038;-72
2021/07/15 02:25:57;;;;;;;10.20;2.60;;;15.20;99.90;;;;;;5013089;28;20056;-71
2021/07/15 02:29:02;;;;;;;8.57;2.50;;;15.30;99.90;;;;;;5011539;28;20475;-72
2021/07/15 02:32:09;;;;;;;10.88;2.72;;;15.20;99.90;;;;;;5009981;28;20053;-72
2021/07/15 02:35:18;;;;;;;11.55;2.55;;;15.20;99.90;;;;;;5014977;28;20061;-72
2021/07/15 02:38:25;;;;;;;5.43;2.42;;;15.20;99.90;;;;;;5014161;28;20045;-72
2021/07/15 02:41:30;;;;;;;11.50;2.45;;;15.20;99.90;;;;;;5011827;28;20041;-71
2021/07/15 02:44:39;;;;;;;7.22;2.50;;;15.10;99.90;;;;;;5013485;28;20049;-71
2021/07/15 02:48:08;;;;;;;8.38;2.35;;;15.10;99.90;;;;;;5014332;28;20041;-72
2021/07/15 02:51:12;;;;;;;7.82;2.85;;;15.10;99.90;;;;;;5010942;28;20494;-71
2021/07/15 02:54:19;;;;;;;15.82;2.60;;;14.90;99.90;;;;;;5011819;28;20475;-72
2021/07/15 02:57:31;;;;;;;7.28;3.08;;;14.90;99.90;;;;;;5012703;28;20049;-72
2021/07/15 03:00:58;;;;;;;7.95;2.60;;;14.90;99.90;;;;;;5013275;28;20046;-72
2021/07/15 03:04:19;;;;;;;6.47;2.20;;;14.80;99.90;;;;;;5011668;28;20053;-73
2021/07/15 03:07:25;;;;;;;8.27;2.20;;;14.80;99.90;;;;;;5012660;28;20697;-71
2021/07/15 03:10:32;;;;;;;14.27;3.10;;;14.80;99.90;;;;;;5012228;28;20049;-72
2021/07/15 03:14:03;;;;;;;6.05;2.17;;;14.80;99.90;;;;;;4989740;28;20049;-72
2021/07/15 03:17:11;;;;;;;7.97;2.33;;;14.80;99.90;;;;;;5013826;28;20045;-72
2021/07/15 03:20:20;;;;;;;7.63;2.15;;;14.80;99.90;;;;;;5011842;28;20053;-72
2021/07/15 03:23:26;;;;;;;7.88;2.28;;;14.80;99.90;;;;;;5015362;28;20041;-71
2021/07/15 03:26:32;;;;;;;7.20;2.60;;;14.80;99.90;;;;;;5020556;28;20040;-72
2021/07/15 03:30:05;;;;;;;7.85;2.15;;;14.70;99.90;;;;;;5035139;28;20048;-73
2021/07/15 03:33:10;;;;;;;7.40;2.88;;;14.70;99.90;;;;;;5037455;28;20037;-72
2021/07/15 03:36:15;;;;;;;8.07;2.47;;;14.70;99.90;;;;;;5035848;28;20041;-73
2021/07/15 03:39:20;;;;;;;6.07;2.65;;;14.80;99.90;;;;;;5036531;28;20069;-71
2021/07/15 03:42:27;;;;;;;12.98;2.80;;;14.90;99.90;;;;;;5034165;28;20574;-71
2021/07/15 03:45:31;;;;;;;6.40;2.45;;;14.90;99.90;;;;;;5036592;28;20041;-72
2021/07/15 03:48:37;;;;;;;7.43;2.90;;;15.00;99.90;;;;;;5034748;28;20053;-72
2021/07/15 03:51:44;;;;;;;4.35;2.30;;;15.20;99.90;;;;;;5033722;28;20053;-71
2021/07/15 03:54:56;;;;;;;10.40;2.30;;;15.20;99.90;;;;;;5034740;28;20041;-72
2021/07/15 03:58:05;;;;;;;7.40;2.58;;;15.20;99.90;;;;;;5034143;28;20058;-73
2021/07/15 04:01:12;;;;;;;7.38;2.47;;;15.10;99.90;;;;;;5022233;28;20052;-72
2021/07/15 04:04:17;;;;;;;11.63;2.55;;;14.80;99.90;;;;;;5034189;28;20042;-72
2021/07/15 04:07:25;;;;;;;9.65;3.03;;;14.60;99.90;;;;;;5034299;28;20059;-72
2021/07/15 04:10:30;;;;;;;8.02;2.75;;;14.60;99.90;;;;;;5033811;28;20045;-71
2021/07/15 04:13:35;;;;;;;11.77;3.58;;;14.60;99.90;;;;;;5034848;28;20049;-72
2021/07/15 04:16:51;;;;;;;6.85;2.88;;;14.50;99.90;;;;;;5033651;28;20048;-72
2021/07/15 04:19:59;;;;;;;11.20;2.38;;;14.50;99.90;;;;;;5034886;28;20049;-71
2021/07/15 04:23:12;;;;;;;7.15;2.20;;;14.50;99.90;;;;;;5035234;28;20060;-71
2021/07/15 04:26:17;;;;;;;;;;;14.50;99.90;;;;;;5031036;28;20041;-71
2021/07/15 04:29:25;;;;;;;7.88;2.17;;;14.50;99.90;;;;;;5017378;28;19916;-72
2021/07/15 04:32:54;;;;;;;10.18;3.13;;;14.50;99.90;;;;;;5013421;28;20049;-72
2021/07/15 04:36:00;;;;;;;5.75;2.35;;;14.50;99.90;;;;;;5027986;28;20040;-73
2021/07/15 04:39:04;;;;;;;7.70;2.55;;;14.60;99.90;;;;;;5030902;28;20037;-71
2021/07/15 04:42:10;;;;;;;6.03;2.20;;;14.70;99.90;;;;;;5033583;28;20049;-71
2021/07/15 04:45:17;;;;;;;9.73;2.45;;;14.80;99.90;;;;;;5034979;28;20380;-72
2021/07/15 04:48:21;;;;;;;4.90;2.53;;;14.90;99.90;;;;;;5033780;28;20030;-72
2021/07/15 04:51:27;;;;;;;4.38;1.92;;;15.00;99.90;;;;;;5033595;28;20033;-71
2021/07/15 04:54:32;;;;;;;6.13;2.03;;;15.20;99.90;;;;;;5010349;28;20053;-72
2021/07/15 04:57:37;;;;;;;7.82;2.20;;;15.30;99.90;;;;;;5034198;28;20114;-72
2021/07/15 05:01:08;;;;;;;10.10;2.22;;;15.40;99.90;;;;;;5032883;28;20042;-73
2021/07/15 05:04:12;;;;;;;7.68;2.80;;;15.60;99.90;;;;;;5021852;28;20052;-72
2021/07/15 05:07:18;;;;;;;6.68;2.03;;;15.70;99.90;;;;;;5035221;28;20044;-73
2021/07/15 05:10:22;;;;;;;9.98;1.95;;;15.80;99.90;;;;;;5032468;28;20109;-72
2021/07/15 05:13:26;;;;;;;5.95;1.75;;;15.90;99.90;;;;;;5034254;28;20045;-72
2021/07/15 05:16:31;;;;;;;6.25;1.92;;;16.10;99.90;;;;;;5034559;28;20392;-72
2021/07/15 05:19:36;;;;;;;6.32;2.00;;;16.20;99.90;;;;;;5032020;28;20029;-73
2021/07/15 05:22:40;;;;;;;7.53;1.90;;;16.30;99.90;;;;;;5030969;28;20037;-72
2021/07/15 05:25:44;;;;;;;5.75;2.05;;;16.30;99.90;;;;;;5027397;28;20040;-72
2021/07/15 05:28:49;;;;;;;7.18;1.92;;;16.60;99.90;;;;;;5033130;28;20033;-72
2021/07/15 05:31:54;;;;;;;4.03;1.90;;;16.60;99.90;;;;;;5028310;28;20050;-73
2021/07/15 05:34:58;;;;;;;5.97;2.35;;;16.90;99.90;;;;;;5032731;28;20345;-73
2021/07/15 05:38:04;;;;;;;4.97;1.55;;;17.10;99.90;;;;;;5022436;28;20052;-73
2021/07/15 05:41:10;;;;;;;7.20;1.60;;;17.20;99.90;;;;;;5029365;28;20052;-73
2021/07/15 05:44:14;;;;;;;5.78;2.25;;;17.40;99.90;;;;;;5026988;28;20096;-72
2021/07/15 05:47:18;;;;;;;5.10;1.85;;;17.40;99.90;;;;;;5032988;28;20022;-72
2021/07/15 05:50:23;;;;;;;6.07;1.92;;;17.10;99.90;;;;;;5031206;28;20372;-73
2021/07/15 05:53:27;;;;;;;6.38;1.55;;;16.70;99.90;;;;;;5032301;28;20041;-73
2021/07/15 05:56:34;;;;;;;9.88;2.05;;;16.70;99.90;;;;;;5029842;28;20048;-73
2021/07/15 05:59:38;;;;;;;8.88;2.10;;;17.10;99.90;;;;;;5033381;28;20038;-72
2021/07/15 06:02:45;;;;;;;8.48;2.33;;;17.20;99.90;;;;;;5032075;28;20049;-72
2021/07/15 06:05:51;;;;;;;9.02;2.00;;;17.30;99.90;;;;;;5027908;28;20041;-73
2021/07/15 06:08:55;;;;;;;6.43;1.80;;;17.50;99.90;;;;;;5032226;28;20045;-72
2021/07/15 06:12:00;;;;;;;6.95;2.03;;;18.20;99.90;;;;;;5031175;28;20413;-73
2021/07/15 06:15:06;;;;;;;4.45;1.65;;;18.80;99.90;;;;;;5030403;28;20500;-73
2021/07/15 06:18:10;;;;;;;6.00;1.85;;;19.20;99.90;;;;;;5013692;28;20030;-73
2021/07/15 06:21:18;;;;;;;5.97;2.03;;;20.10;99.90;;;;;;5011962;28;20048;-69
2021/07/15 06:24:22;;;;;;;4.35;2.05;;;20.80;99.90;;;;;;5019698;28;20036;-73
2021/07/15 06:27:26;;;;;;;4.00;1.73;;;20.10;99.90;;;;;;5029651;28;20044;-73
2021/07/15 06:30:30;;;;;;;8.45;2.08;;;19.80;99.90;;;;;;5031300;28;20037;-73
2021/07/15 06:33:41;;;;;;;11.13;2.58;;;20.50;99.90;;;;;;5031673;28;20585;-71
2021/07/15 06:36:46;;;;;;;6.45;1.58;;;20.70;99.90;;;;;;5018706;28;20036;-73
2021/07/15 06:39:50;;;;;;;4.07;1.60;;;20.10;99.90;;;;;;5020560;28;20046;-73
2021/07/15 06:42:58;;;;;;;4.20;1.45;;;22.40;99.90;;;;;;5032107;28;20334;-72
2021/07/15 06:46:03;;;;;;;5.13;1.48;;;24.50;96.90;;;;;;5014769;28;20049;-70
2021/07/15 06:49:07;;;;;;;3.88;1.50;;;26.00;94.30;;;;;;5028852;28;20040;-70
2021/07/15 06:52:12;;;;;;;3.65;1.42;;;26.90;91.70;;;;;;5012521;28;20041;-71
2021/07/15 06:55:16;;;;;;;5.57;1.65;;;27.60;91.20;;;;;;5013261;28;20045;-70
2021/07/15 06:58:20;;;;;;;3.63;1.60;;;26.40;91.40;;;;;;5014958;28;20045;-70
2021/07/15 07:01:24;;;;;;;6.30;1.63;;;27.20;89.60;;;;;;5018862;28;20041;-71
2021/07/15 07:04:28;;;;;;;7.63;1.35;;;27.90;88.50;;;;;;5026706;28;20044;-70
2021/07/15 07:07:34;;;;;;;5.03;1.45;;;27.10;88.30;;;;;;5017676;28;20049;-74
2021/07/15 07:10:39;;;;;;;5.70;1.80;;;26.20;90.90;;;;;;5003656;28;20048;-70
2021/07/15 07:13:43;;;;;;;6.25;1.50;;;26.30;90.40;;;;;;5024191;28;20393;-71
2021/07/15 07:16:47;;;;;;;4.95;1.90;;;27.80;88.00;;;;;;5003757;28;20037;-70
2021/07/15 07:19:52;;;;;;;4.65;1.52;;;26.20;89.20;;;;;;5006306;28;20037;-71
2021/07/15 07:22:57;;;;;;;3.05;1.60;;;26.20;88.80;;;;;;5029645;28;20040;-70
2021/07/15 07:26:02;;;;;;;7.30;1.58;;;26.10;90.00;;;;;;5027542;28;20621;-70
2021/07/15 07:29:07;;;;;;;8.05;1.42;;;26.90;88.80;;;;;;5027685;28;20044;-70
2021/07/15 07:32:11;;;;;;;7.03;1.38;;;27.30;86.20;;;;;;5029497;28;20503;-71
2021/07/15 07:35:18;;;;;;;5.22;1.40;;;26.40;88.40;;;;;;5030948;28;20041;-72
2021/07/15 07:38:22;;;;;;;8.18;1.60;;;27.00;88.50;;;;;;5030430;28;20041;-70
2021/07/15 07:41:26;;;;;;;6.22;1.60;;;27.10;87.30;;;;;;5025469;28;20045;-71
2021/07/15 07:44:30;;;;;;;3.45;1.33;;;26.10;89.00;;;;;;5030119;28;20459;-71
2021/07/15 07:47:34;;;;;;;7.13;2.15;;;26.90;89.20;;;;;;5031645;28;20037;-71
2021/07/15 07:50:39;;;;;;;3.85;1.23;;;27.90;86.30;;;;;;5030331;28;20037;-71
2021/07/15 07:53:44;;;;;;;9.27;1.80;;;30.40;84.40;;;;;;5031843;28;20033;-71
2021/07/15 07:56:48;;;;;;;4.57;1.30;;;31.60;81.50;;;;;;5018509;28;20041;-70
2021/07/15 07:59:53;;;;;;;7.28;1.52;;;31.40;79.40;;;;;;5024065;28;20067;-72
2021/07/15 08:02:57;;;;;;;5.13;1.50;;;30.50;81.50;;;;;;5024127;28;20048;-71
2021/07/15 08:06:01;;;;;;;4.85;1.17;;;30.20;80.60;;;;;;5021367;28;20034;-70
2021/07/15 08:09:08;;;;;;;6.30;1.60;;;29.00;81.00;;;;;;5014538;28;20037;-71
2021/07/15 08:12:16;;;;;;;7.20;1.58;;;30.30;82.20;;;;;;5025102;28;20053;-71
2021/07/15 08:15:25;;;;;;;5.85;1.60;;;32.00;79.90;;;;;;5025273;28;20045;-71
2021/07/15 08:18:29;;;;;;;4.95;1.42;;;31.10;79.90;;;;;;5030773;28;20037;-70
2021/07/15 08:21:34;;;;;;;9.38;1.52;;;33.00;77.70;;;;;;5029542;28;20396;-71
2021/07/15 08:24:39;;;;;;;5.85;1.27;;;31.90;77.20;;;;;;5034328;28;20049;-71
2021/07/15 08:27:45;;;;;;;6.60;2.22;;;34.10;75.80;;;;;;5017886;28;20053;-72
2021/07/15 08:30:49;;;;;;;9.35;1.63;;;32.10;75.80;;;;;;5015730;28;20396;-71
2021/07/15 08:33:53;;;;;;;4.55;1.10;;;30.90;77.20;;;;;;5002125;28;20499;-71
2021/07/15 08:36:59;;;;;;;6.25;1.30;;;32.00;77.90;;;;;;5028343;28;20037;-71
2021/07/15 08:40:05;;;;;;;5.68;1.27;;;31.60;75.10;;;;;;5023729;28;20041;-71
2021/07/15 08:43:10;;;;;;;6.68;1.33;;;32.00;74.00;;;;;;5027991;28;20052;-71
2021/07/15 08:46:15;;;;;;;8.85;1.65;;;30.30;75.90;;;;;;5031108;28;20042;-71
2021/07/15 08:49:21;;;;;;;4.30;1.02;;;32.30;75.10;;;;;;5028157;28;20042;-71
2021/07/15 08:52:26;;;;;;;3.72;1.25;;;35.10;72.40;;;;;;5026766;28;20423;-73
2021/07/15 08:58:55;;;;;;;3.45;1.05;;;35.90;69.50;;;;;;5032184;28;20034;-71
2021/07/15 09:02:02;;;;;;;5.03;1.30;;;38.10;67.70;;;;;;5032813;28;20064;-72
2021/07/15 09:05:09;;;;;;;4.93;0.90;;;39.70;64.30;;;;;;5033658;28;20037;-71
2021/07/15 09:08:14;;;;;;;3.25;1.10;;;39.70;62.90;;;;;;5032897;28;20033;-72
2021/07/15 09:11:19;;;;;;;4.80;1.20;;;40.00;62.80;;;;;;5031682;28;20041;-72
2021/07/15 09:14:28;;;;;;;6.47;1.30;;;39.30;63.10;;;;;;5032081;28;20040;-72
2021/07/15 09:17:36;;;;;;;4.82;1.20;;;37.30;64.90;;;;;;5031824;28;20041;-72
2021/07/15 09:20:42;;;;;;;4.18;1.17;;;34.20;66.30;;;;;;5017572;28;20044;-73
2021/07/15 09:23:46;;;;;;;7.57;1.20;;;34.40;67.70;;;;;;5030260;28;20033;-74
2021/07/15 09:26:50;;;;;;;6.13;1.20;;;33.60;69.50;;;;;;5011378;28;20062;-74
2021/07/15 09:30:13;;;;;;;3.75;1.20;;;31.80;70.00;;;;;;5019903;28;20037;-74
2021/07/15 09:33:18;;;;;;;8.00;1.40;;;32.00;71.30;;;;;;4997683;28;20041;-74
2021/07/15 09:36:24;;;;;;;6.35;1.92;;;30.90;72.90;;;;;;5032301;28;20041;-73
2021/07/15 09:39:29;;;;;;;5.90;1.40;;;30.00;74.10;;;;;;5032201;28;20041;-74
2021/07/15 09:42:33;;;;;;;6.72;1.45;;;32.10;72.80;;;;;;5031911;28;20725;-71
2021/07/15 09:45:37;;;;;;;6.03;1.60;;;32.30;70.20;;;;;;5019008;28;20482;-72
2021/07/15 09:48:46;;;;;;;3.25;1.42;;;36.70;67.00;;;;;;5015416;28;20049;-72
2021/07/15 09:51:51;;;;;;;2.60;0.95;;;37.30;64.70;;;;;;5030056;28;20052;-72
2021/07/15 09:55:16;;;;;;;9.18;1.20;;;36.10;65.60;;;;;;5019963;28;20044;-72
2021/07/15 09:58:22;;;;;;;6.20;1.38;;;32.90;69.90;;;;;;5008478;28;20083;-72
2021/07/15 10:01:31;;;;;;;3.72;1.52;;;33.60;70.20;;;;;;5025027;28;20042;-72
2021/07/15 10:04:35;;;;;;;7.93;1.20;;;34.40;68.70;;;;;;5017271;28;20492;-72
2021/07/15 10:07:47;;;;;;;8.05;1.83;;;34.30;69.10;;;;;;5032000;28;20483;-72
2021/07/15 10:10:52;;;;;;;4.53;1.15;;;34.40;68.90;;;;;;5017193;28;20045;-71
2021/07/15 10:14:09;;;;;;;4.43;1.20;;;34.20;68.90;;;;;;5013547;28;20049;-74
2021/07/15 10:17:36;;;;;;;4.03;1.33;;;34.60;68.60;;;;;;5014991;28;20491;-72
2021/07/15 10:20:55;;;;;;;3.58;1.35;;;35.50;67.20;;;;;;5013947;28;20042;-74
2021/07/15 10:24:20;;;;;;;8.53;2.00;;;35.50;67.20;;;;;;5023935;28;20048;-73
2021/07/15 10:27:24;;;;;;;12.32;1.17;;;34.70;67.50;;;;;;5019526;28;20042;-73
2021/07/15 10:30:28;;;;;;;10.52;1.30;;;35.00;67.70;;;;;;5016534;28;20044;-73
2021/07/15 10:33:34;;;;;;;4.45;1.00;;;36.90;66.50;;;;;;5027399;28;20498;-71
2021/07/15 10:36:41;;;;;;;5.28;1.15;;;36.30;64.60;;;;;;5030075;28;20041;-71
2021/07/15 10:39:46;;;;;;;6.18;1.30;;;36.70;65.20;;;;;;5011711;28;20088;-71
2021/07/15 10:42:52;;;;;;;4.85;1.23;;;36.30;65.90;;;;;;5012767;28;20062;-73
2021/07/15 10:46:01;;;;;;;4.50;1.50;;;35.40;66.70;;;;;;5025738;28;20419;-73
2021/07/15 10:49:09;;;;;;;2.53;0.93;;;35.40;67.20;;;;;;5019905;28;20044;-73
2021/07/15 10:52:18;;;;;;;3.88;1.10;;;36.60;65.90;;;;;;5008236;28;20053;-73
2021/07/15 10:55:25;;;;;;;3.45;1.10;;;38.00;65.00;;;;;;5012044;28;20071;-73
2021/07/15 11:02:25;;;;;;;3.05;1.38;;;35.90;65.00;;;;;;5011292;28;20048;-73
2021/07/15 11:05:32;;;;;;;3.55;1.30;;;34.70;66.70;;;;;;5025737;28;20033;-72
2021/07/15 11:08:44;;;;;;;8.38;1.10;;;34.30;67.20;;;;;;5030760;28;20614;-73
2021/07/15 11:11:49;;;;;;;4.53;1.30;;;34.60;67.50;;;;;;5028737;28;20049;-73
2021/07/15 11:15:15;;;;;;;9.30;2.00;;;34.70;66.80;;;;;;5029108;28;20492;-72
2021/07/15 11:18:44;;;;;;;4.50;1.30;;;35.00;67.10;;;;;;5025897;28;20092;-72
2021/07/15 11:21:58;;;;;;;4.93;1.20;;;32.60;68.80;;;;;;5017725;28;20044;-73
2021/07/15 11:25:11;;;;;;;6.00;1.75;;;33.50;69.20;;;;;;5016653;28;20048;-72
2021/07/15 11:28:23;;;;;;;9.18;1.50;;;33.80;68.80;;;;;;5005604;28;20044;-73
2021/07/15 11:31:47;;;;;;;4.32;1.35;;;34.50;68.80;;;;;;5023953;28;20038;-74
2021/07/15 11:34:55;;;;;;;6.30;1.38;;;36.30;65.80;;;;;;5020720;28;20038;-74
2021/07/15 11:38:26;;;;;;;5.10;1.13;;;37.80;63.50;;;;;;5029685;28;20056;-74
2021/07/15 11:41:45;;;;;;;3.05;1.20;;;39.20;63.30;;;;;;5015501;28;20041;-73
2021/07/15 11:45:00;;;;;;;3.83;1.10;;;38.90;62.20;;;;;;5007610;28;20057;-72
2021/07/15 11:48:05;;;;;;;5.80;1.25;;;37.80;63.30;;;;;;5024989;28;20033;-73
2021/07/15 11:51:34;;;;;;;7.72;1.05;;;35.30;64.10;;;;;;5004887;28;20799;-74
2021/07/15 11:54:46;;;;;;;3.75;1.10;;;35.80;64.40;;;;;;5012000;28;20041;-73
2021/07/15 11:57:51;;;;;;;3.17;1.05;;;35.60;65.20;;;;;;5026874;28;20482;-73
2021/07/15 12:01:18;;;;;;;4.22;1.40;;;35.10;66.10;;;;;;5024087;28;20021;-72
2021/07/15 12:04:22;;;;;;;7.10;1.33;;;35.20;66.00;;;;;;5026305;28;20048;-73
2021/07/15 12:07:27;;;;;;;3.83;1.40;;;35.50;66.00;;;;;;5025448;28;20098;-73
2021/07/15 12:10:35;;;;;;;7.88;1.42;;;35.80;66.40;;;;;;5026380;28;20582;-73
2021/07/15 12:13:42;;;;;;;5.18;1.83;;;37.40;64.60;;;;;;5020018;28;20041;-73
2021/07/15 12:16:47;;;;;;;4.78;1.13;;;38.50;62.70;;;;;;5026005;28;20376;-73
2021/07/15 12:20:00;;;;;;;8.73;1.20;;;38.60;61.80;;;;;;5021962;28;20052;-72
2021/07/15 12:23:04;;;;;;;6.15;1.30;;;37.80;62.20;;;;;;5013915;28;20038;-71
2021/07/15 12:26:12;;;;;;;5.40;1.38;;;33.90;65.30;;;;;;5027362;28;21406;-73
2021/07/15 12:29:16;;;;;;;4.20;1.27;;;34.40;66.50;;;;;;5024489;28;20030;-72
2021/07/15 12:32:22;;;;;;;7.80;1.40;;;35.90;65.10;;;;;;5025869;28;20375;-72
2021/07/15 12:35:33;;;;;;;5.10;1.27;;;36.50;64.40;;;;;;5006828;28;20038;-71
2021/07/15 12:38:38;;;;;;;4.00;1.45;;;34.30;64.70;;;;;;5010197;28;20380;-73
2021/07/15 12:41:45;;;;;;;4.82;1.27;;;33.70;66.00;;;;;;5022283;28;20034;-71
2021/07/15 12:44:49;;;;;;;12.02;1.98;;;32.10;69.10;;;;;;5025661;28;20045;-72
2021/07/15 12:48:06;;;;;;;5.22;1.20;;;31.80;70.00;;;;;;5010296;28;20048;-72
2021/07/15 12:51:12;;;;;;;3.30;1.20;;;33.10;68.50;;;;;;5011131;28;20053;-73
2021/07/15 12:54:34;;;;;;;11.18;1.58;;;34.30;66.70;;;;;;5005187;28;20422;-72
2021/07/15 12:57:39;;;;;;;3.50;1.08;;;35.60;66.90;;;;;;5013336;28;20052;-72
2021/07/15 13:00:44;;;;;;;4.85;1.35;;;34.30;66.30;;;;;;4998545;28;20555;-72
2021/07/15 13:04:08;;;;;;;4.75;1.50;;;33.80;68.70;;;;;;4988075;28;20492;-73
2021/07/15 13:07:21;;;;;;;4.45;1.05;;;30.90;72.00;;;;;;5016470;28;20025;-73
2021/07/15 13:16:58;;;;;;;4.03;1.20;;;33.20;68.40;;;;;;5020558;28;20034;-73
2021/07/15 13:20:14;;;;;;;12.40;1.30;;;32.40;69.10;;;;;;5011858;28;20042;-73
2021/07/15 13:23:18;;;;;;;11.05;1.60;;;31.50;71.40;;;;;;5011731;28;20049;-73
2021/07/15 13:26:25;;;;;;;5.15;1.38;;;32.30;70.60;;;;;;5015961;28;20044;-73
2021/07/15 13:29:31;;;;;;;5.70;1.52;;;33.60;69.70;;;;;;5020301;28;20050;-73
2021/07/15 13:32:35;;;;;;;2.05;1.10;;;33.00;68.40;;;;;;5034175;28;20045;-73
2021/07/15 13:35:41;;;;;;;8.48;1.55;;;31.90;68.10;;;;;;5014630;28;20499;-73
2021/07/15 13:38:48;;;;;;;6.22;1.50;;;31.90;69.90;;;;;;4994267;28;20565;-73
2021/07/15 13:41:57;;;;;;;11.73;1.30;;;32.00;69.80;;;;;;5013350;28;20494;-72
2021/07/15 13:45:08;;;;;;;6.20;1.80;;;31.80;70.60;;;;;;5022339;28;20044;-73
2021/07/15 13:48:16;;;;;;;4.05;1.55;;;31.60;71.40;;;;;;5020752;28;20029;-72
2021/07/15 13:51:24;;;;;;;5.78;1.45;;;31.60;71.90;;;;;;5024907;28;20506;-73
2021/07/15 13:54:29;;;;;;;4.55;1.70;;;31.50;71.20;;;;;;5021249;28;20518;-72
2021/07/15 13:57:36;;;;;;;4.15;1.40;;;31.60;71.50;;;;;;5023209;28;20683;-72
2021/07/15 14:00:53;;;;;;;6.03;1.42;;;31.80;70.70;;;;;;5012352;28;20041;-72
2021/07/15 14:03:57;;;;;;;5.10;1.20;;;31.80;70.20;;;;;;5020689;28;20522;-72
2021/07/15 14:07:04;;;;;;;5.60;1.23;;;31.90;70.30;;;;;;5017776;28;20045;-71
2021/07/15 14:10:14;;;;;;;10.45;1.27;;;31.10;71.00;;;;;;5005666;28;20036;-72
2021/07/15 14:13:18;;;;;;;7.03;1.30;;;31.10;71.90;;;;;;5017395;28;20053;-73
2021/07/15 14:16:28;;;;;;;7.75;1.67;;;31.20;71.90;;;;;;5004808;28;20053;-74
2021/07/15 14:19:33;;;;;;;5.97;1.25;;;31.20;72.10;;;;;;5023687;28;20049;-74
2021/07/15 14:22:37;;;;;;;10.57;1.50;;;31.10;72.60;;;;;;5025701;28;20487;-74
2021/07/15 14:25:42;;;;;;;9.13;1.38;;;31.20;72.00;;;;;;5023009;28;20044;-71
2021/07/15 14:28:47;;;;;;;4.07;1.15;;;31.20;72.00;;;;;;5014765;28;20042;-71
2021/07/15 14:31:52;;;;;;;5.88;1.40;;;31.50;71.90;;;;;;5023222;28;20033;-72
2021/07/15 14:34:56;;;;;;;3.03;1.20;;;32.20;71.00;;;;;;5021152;28;20456;-71
2021/07/15 14:38:02;;;;;;;5.43;1.20;;;33.10;70.20;;;;;;5020308;28;20054;-71
2021/07/15 14:41:06;;;;;;;11.73;1.92;;;33.50;69.00;;;;;;5021716;28;20070;-72
2021/07/15 14:44:11;;;;;;;4.53;1.42;;;33.50;69.30;;;;;;5023216;28;20056;-72
2021/07/15 14:47:15;;;;;;;6.00;1.20;;;33.30;69.50;;;;;;5022773;28;20364;-72
2021/07/15 14:50:20;;;;;;;7.65;1.83;;;33.10;68.80;;;;;;5018709;28;20049;-72
2021/07/15 14:53:24;;;;;;;11.15;1.70;;;32.90;68.80;;;;;;5021352;28;20392;-74
2021/07/15 14:56:28;;;;;;;6.13;1.20;;;32.60;69.50;;;;;;5021886;28;20498;-74
2021/07/15 14:59:32;;;;;;;6.72;1.65;;;32.40;70.00;;;;;;5017970;28;20678;-73
2021/07/15 15:02:37;;;;;;;6.55;1.30;;;32.00;70.00;;;;;;5020101;28;20045;-71
2021/07/15 15:05:42;;;;;;;4.72;1.40;;;31.70;69.50;;;;;;5017258;28;20376;-73
2021/07/15 15:08:46;;;;;;;3.55;1.10;;;31.40;70.50;;;;;;5021536;28;20393;-72
2021/07/15 15:11:50;;;;;;;5.40;1.38;;;31.40;70.20;;;;;;5015287;28;20045;-70
2021/07/15 15:14:54;;;;;;;5.10;1.30;;;31.50;70.60;;;;;;5029288;28;20033;-71
2021/07/15 15:17:58;;;;;;;4.90;1.50;;;31.70;70.60;;;;;;5033646;28;20029;-70
2021/07/15 15:21:04;;;;;;;4.78;1.20;;;31.60;71.50;;;;;;5032392;28;20037;-71
2021/07/15 15:24:08;;;;;;;4.68;1.50;;;31.50;71.70;;;;;;5033446;28;20041;-71
2021/07/15 15:27:14;;;;;;;7.03;1.63;;;31.30;71.80;;;;;;5019138;28;20038;-72
2021/07/15 15:30:19;;;;;;;5.07;1.40;;;31.20;72.60;;;;;;5016750;28;20048;-71
2021/07/15 15:33:24;;;;;;;10.05;1.52;;;31.10;72.50;;;;;;5034184;28;20659;-71
2021/07/15 15:36:28;;;;;;;6.40;1.30;;;31.00;72.60;;;;;;5034161;28;20407;-71
2021/07/15 15:39:33;;;;;;;7.47;1.40;;;30.80;73.40;;;;;;5017668;28;20048;-73
2021/07/15 15:42:44;;;;;;;6.75;1.50;;;30.50;73.40;;;;;;5010953;28;20036;-71
2021/07/15 15:45:49;;;;;;;6.60;1.40;;;30.40;73.70;;;;;;5011421;28;20037;-73
2021/07/15 15:49:03;;;;;;;6.20;1.38;;;30.20;74.40;;;;;;5028685;28;20387;-72
2021/07/15 15:52:12;;;;;;;3.63;1.40;;;30.30;74.60;;;;;;5011196;28;20033;-73
2021/07/15 15:55:16;;;;;;;4.35;1.38;;;30.40;74.60;;;;;;5034595;28;20392;-73
2021/07/15 15:58:21;;;;;;;6.60;1.42;;;30.70;74.20;;;;;;5019794;28;20487;-71
2021/07/15 16:01:25;;;;;;;5.32;1.55;;;31.00;73.40;;;;;;5033302;28;20044;-71
2021/07/15 16:04:30;;;;;;;6.55;1.70;;;30.90;73.10;;;;;;5035652;28;20048;-71
2021/07/15 16:07:34;;;;;;;4.57;1.50;;;30.80;73.30;;;;;;5033436;28;20044;-71
2021/07/15 16:10:39;;;;;;;5.55;1.15;;;30.80;73.80;;;;;;5033598;28;20033;-70
2021/07/15 16:13:44;;;;;;;8.43;1.80;;;30.50;73.60;;;;;;5033587;28;20038;-74
2021/07/15 16:16:48;;;;;;;7.03;1.35;;;30.50;74.10;;;;;;5034208;28;20044;-74
2021/07/15 16:19:52;;;;;;;7.50;1.77;;;30.30;74.60;;;;;;5034280;28;20368;-74
2021/07/15 16:22:57;;;;;;;4.97;1.50;;;30.10;74.30;;;;;;5033889;28;20054;-73
2021/07/15 16:26:02;;;;;;;5.07;1.27;;;29.90;75.00;;;;;;5014008;28;20567;-73
2021/07/15 16:29:06;;;;;;;4.82;1.63;;;29.90;75.50;;;;;;5013945;28;20042;-73